Terminal Aerodrome Forecast
Issued by NWS St Louis, MO

Home | Current Version | Previous Version | Text Only | Print | Product List | Glossary On
Versions: 1 2 3 4 5 6 7 8 9 10 11 12 13 14 15 16 17 18 19 20 21 22 23 24 25
000
FTUS43 KLSX 240500
TAFSTL
TAF
KSTL 240520Z 2406/2512 13008KT P6SM BKN100
     FM241500 16015G25KT P6SM BKN040
     FM250000 15014KT 6SM -SHRA VCTS BKN040CB
     FM250600 18014KT P6SM BKN030=

USA.gov is the U.S. government's official web portal to all federal, state and local government web resources and services.